Terminal Aerodrome Forecast
Issued by NWS Billings, MT

Home | Current Version | Previous Version | Graphics & Text | Print | Product List | Glossary On
Versions: 1 2 3 4 5 6 7 8 9 10 11 12 13 14 15 16
000
FTUS45 KBYZ 211736
TAFMLS
TAF
KMLS 211736Z 2118/2218 28020G35KT P6SM SKC
     FM220200 25015KT P6SM SKC
     FM221000 22015KT P6SM BKN060 WS020/30047KT
     FM221500 26025G35KT P6SM BKN060=

USA.gov is the U.S. government's official web portal to all federal, state and local government web resources and services.